createdAt,value
2018-06-09T00:00:17.510Z,99443.06
2018-06-09T00:02:45.266Z,99450.12
2018-06-09T00:05:13.004Z,99452.27
2018-06-09T00:07:40.674Z,99451.17
2018-06-09T00:10:08.352Z,99459.86
2018-06-09T00:12:36.068Z,99457.03
2018-06-09T00:15:03.844Z,99462.54
2018-06-09T00:17:31.647Z,99465.77
2018-06-09T00:19:59.413Z,99467.24
2018-06-09T00:22:27.208Z,99467.62
2018-06-09T00:24:54.872Z,99479.20
2018-06-09T00:27:22.638Z,99478.69
2018-06-09T00:29:50.338Z,99484.77
2018-06-09T00:32:17.989Z,99481.45
2018-06-09T00:34:45.564Z,99491.02
2018-06-09T00:37:13.224Z,99487.03
2018-06-09T00:39:40.842Z,99495.75
2018-06-09T00:42:08.469Z,99491.37
2018-06-09T00:44:36.185Z,99489.03
2018-06-09T00:47:03.972Z,99491.30
2018-06-09T00:49:31.698Z,99484.26
2018-06-09T00:51:59.359Z,99485.08
2018-06-09T00:54:27.227Z,99478.00
2018-06-09T00:56:55.108Z,99478.83
2018-06-09T00:59:22.831Z,99479.23
2018-06-09T01:01:50.518Z,99476.48
2018-06-09T01:04:18.180Z,99474.25
2018-06-09T01:06:45.803Z,99460.14
2018-06-09T01:09:13.450Z,99463.33
2018-06-09T01:11:41.054Z,99458.20
2018-06-09T01:14:08.676Z,99466.80
2018-06-09T01:16:36.265Z,99460.94
2018-06-09T01:19:03.860Z,99464.03
2018-06-09T01:21:31.459Z,99465.74
2018-06-09T01:23:59.069Z,99465.68
2018-06-09T01:26:26.686Z,99460.47
2018-06-09T01:28:54.288Z,99466.52
2018-06-09T01:31:21.903Z,99469.84
2018-06-09T01:33:49.528Z,99470.52
2018-06-09T01:36:17.140Z,99471.34
2018-06-09T01:38:44.752Z,99471.34
2018-06-09T01:41:12.382Z,99463.57
2018-06-09T01:43:39.990Z,99471.09
2018-06-09T01:46:07.653Z,99472.69
2018-06-09T01:48:35.262Z,99469.12
2018-06-09T01:51:02.920Z,99465.38
2018-06-09T01:53:30.598Z,99460.05
2018-06-09T01:55:58.130Z,99458.80
2018-06-09T01:58:25.738Z,99452.20
2018-06-09T02:00:53.399Z,99454.25
2018-06-09T02:03:21.004Z,99445.80
2018-06-09T02:05:48.574Z,99447.63
2018-06-09T02:08:16.194Z,99441.73
2018-06-09T02:10:43.813Z,99444.84
2018-06-09T02:13:11.452Z,99446.42
2018-06-09T02:15:38.999Z,99453.90
2018-06-09T02:18:06.623Z,99449.51
2018-06-09T02:20:34.267Z,99448.17
2018-06-09T02:23:01.874Z,99444.59
2018-06-09T02:25:29.522Z,99442.94
2018-06-09T02:27:57.154Z,99441.49
2018-06-09T02:30:24.761Z,99440.66
2018-06-09T02:32:52.376Z,99440.95
2018-06-09T02:35:19.965Z,99446.09
2018-06-09T02:37:48.397Z,99436.17
2018-06-09T02:40:16.059Z,99438.21
2018-06-09T02:42:43.742Z,99435.05
2018-06-09T02:45:11.361Z,99439.87
2018-06-09T02:47:39.024Z,99438.59
2018-06-09T02:50:06.605Z,99438.30
2018-06-09T02:52:34.292Z,99437.80
2018-06-09T02:55:01.995Z,99438.03
2018-06-09T02:57:29.564Z,99450.01
2018-06-09T02:59:57.220Z,99448.35
2018-06-09T03:02:24.845Z,99447.43
2018-06-09T03:04:52.422Z,99435.70
2018-06-09T03:07:20.061Z,99434.59
2018-06-09T03:09:47.722Z,99434.26
2018-06-09T03:12:15.339Z,99429.36
2018-06-09T03:14:42.977Z,99429.48
2018-06-09T03:17:10.624Z,99432.48
2018-06-09T03:19:38.252Z,99439.79
2018-06-09T03:22:05.869Z,99444.40
2018-06-09T03:24:33.484Z,99447.23
2018-06-09T03:27:01.085Z,99443.59
2018-06-09T03:29:28.732Z,99448.23
2018-06-09T03:31:56.441Z,99450.59
2018-06-09T03:34:23.970Z,99455.88
2018-06-09T03:36:51.560Z,99450.84
2018-06-09T03:39:19.226Z,99448.58
2018-06-09T03:41:46.850Z,99444.16
2018-06-09T03:44:14.558Z,99443.00
2018-06-09T03:46:42.165Z,99442.95
2018-06-09T03:49:09.811Z,99442.66
2018-06-09T03:51:37.371Z,99429.78
2018-06-09T03:54:05.134Z,99425.70
2018-06-09T03:56:32.775Z,99425.25
2018-06-09T03:59:00.467Z,99430.45
2018-06-09T04:01:28.202Z,99433.22
2018-06-09T04:03:55.803Z,99438.09
2018-06-09T04:06:23.339Z,99433.78
2018-06-09T04:08:50.970Z,99427.20
2018-06-09T04:11:18.569Z,99430.91
2018-06-09T04:13:46.180Z,99426.95
2018-06-09T04:16:13.824Z,99429.95
2018-06-09T04:18:41.490Z,99433.25
2018-06-09T04:21:09.118Z,99434.65
2018-06-09T04:23:36.680Z,99442.11
2018-06-09T04:26:04.555Z,99442.11
2018-06-09T04:28:32.170Z,99448.95
2018-06-09T04:30:59.842Z,99454.70
2018-06-09T04:33:27.539Z,99461.02
2018-06-09T04:35:55.236Z,99467.72
2018-06-09T04:38:22.895Z,99476.36
2018-06-09T04:40:50.619Z,99479.73
2018-06-09T04:43:18.288Z,99481.09
2018-06-09T04:45:45.950Z,99482.17
2018-06-09T04:48:13.544Z,99487.52
2018-06-09T04:50:41.189Z,99490.20
2018-06-09T04:53:08.857Z,99488.80
2018-06-09T04:55:36.423Z,99489.55
2018-06-09T04:58:04.022Z,99492.05
2018-06-09T05:00:31.693Z,99483.73
2018-06-09T05:02:59.343Z,99492.67
2018-06-09T05:05:26.957Z,99492.50
2018-06-09T05:07:54.607Z,99495.59
2018-06-09T05:10:22.265Z,99496.78
2018-06-09T05:12:49.957Z,99492.05
2018-06-09T05:15:17.554Z,99496.99
2018-06-09T05:17:45.193Z,99501.91
2018-06-09T05:20:12.815Z,99502.72
2018-06-09T05:22:40.400Z,99500.43
2018-06-09T05:25:08.273Z,99497.78
2018-06-09T05:27:35.850Z,99495.29
2018-06-09T05:30:04.071Z,99493.08
2018-06-09T05:32:31.743Z,99491.19
2018-06-09T05:34:59.437Z,99497.05
2018-06-09T05:37:27.132Z,99496.53
2018-06-09T05:39:54.810Z,99497.34
2018-06-09T05:42:22.493Z,99487.57
2018-06-09T05:44:50.161Z,99491.38
2018-06-09T05:47:17.770Z,99489.80
2018-06-09T05:49:45.442Z,99493.89
2018-06-09T05:52:13.144Z,99493.86
2018-06-09T05:54:40.809Z,99492.70
2018-06-09T05:57:08.456Z,99497.88
2018-06-09T05:59:36.100Z,99497.08
2018-06-09T06:02:03.779Z,99487.27
2018-06-09T06:04:31.461Z,99487.79
2018-06-09T06:06:59.190Z,99488.08
2018-06-09T06:09:26.854Z,99485.41
2018-06-09T06:11:54.538Z,99483.65
2018-06-09T06:14:22.171Z,99483.77
2018-06-09T06:16:49.836Z,99477.59
2018-06-09T06:19:17.485Z,99476.93
2018-06-09T06:21:45.039Z,99474.80
2018-06-09T06:24:12.724Z,99480.67
2018-06-09T06:26:40.423Z,99485.80
2018-06-09T06:29:08.068Z,99482.14
2018-06-09T06:31:35.724Z,99487.28
2018-06-09T06:34:03.400Z,99485.46
2018-06-09T06:36:31.104Z,99483.53
2018-06-09T06:38:58.698Z,99481.58
2018-06-09T06:41:26.406Z,99476.75
2018-06-09T06:43:55.253Z,99473.52
2018-06-09T06:46:22.920Z,99484.73
2018-06-09T06:48:50.563Z,99482.16
2018-06-09T06:51:18.186Z,99488.11
2018-06-09T06:53:45.781Z,99485.77
2018-06-09T06:56:13.445Z,99481.91
2018-06-09T06:58:41.078Z,99480.47
2018-06-09T07:01:08.696Z,99484.83
2018-06-09T07:03:36.319Z,99483.69
2018-06-09T07:06:04.149Z,99481.39
2018-06-09T07:08:31.741Z,99486.34
2018-06-09T07:10:59.573Z,99471.25
2018-06-09T07:13:27.287Z,99488.38
2018-06-09T07:15:54.827Z,99487.64
2018-06-09T07:18:22.503Z,99490.87
2018-06-09T07:20:50.106Z,99494.51
2018-06-09T07:23:17.687Z,99495.03
2018-06-09T07:25:45.372Z,99497.79
2018-06-09T07:28:12.961Z,99496.58
2018-06-09T07:30:40.573Z,99500.70
2018-06-09T07:33:08.163Z,99501.04
2018-06-09T07:35:35.762Z,99503.31
2018-06-09T07:38:03.391Z,99497.23
2018-06-09T07:40:30.969Z,99498.95
2018-06-09T07:42:58.602Z,99502.35
2018-06-09T07:45:26.222Z,99506.02
2018-06-09T07:47:53.868Z,99509.09
2018-06-09T07:50:21.524Z,99502.41
2018-06-09T07:52:49.188Z,99500.00
2018-06-09T07:55:16.812Z,99504.50
2018-06-09T07:57:44.509Z,99498.87
2018-06-09T08:00:19.242Z,99498.87
2018-06-09T08:02:46.801Z,99495.39
2018-06-09T08:05:14.428Z,99493.80
2018-06-09T08:07:42.028Z,99498.67
2018-06-09T08:10:10.467Z,99499.88
2018-06-09T08:12:38.181Z,99503.02
2018-06-09T08:15:05.830Z,99506.34
2018-06-09T08:17:33.498Z,99501.27
2018-06-09T08:20:01.213Z,99504.08
2018-06-09T08:22:28.919Z,99500.89
2018-06-09T08:24:57.225Z,99505.55
2018-06-09T08:27:24.860Z,99510.23
2018-06-09T08:29:52.505Z,99515.66
2018-06-09T08:32:20.124Z,99514.81
2018-06-09T08:34:47.735Z,99511.92
2018-06-09T08:37:15.429Z,99508.28
2018-06-09T08:39:43.005Z,99511.84
2018-06-09T08:42:10.668Z,99508.64
2018-06-09T08:44:38.262Z,99510.72
2018-06-09T08:47:05.882Z,99512.92
2018-06-09T08:49:33.552Z,99509.55
2018-06-09T08:52:01.183Z,99502.48
2018-06-09T08:54:28.786Z,99505.52
2018-06-09T08:56:56.498Z,99506.91
2018-06-09T08:59:24.128Z,99507.82
2018-06-09T09:01:51.734Z,99497.45
2018-06-09T09:04:19.298Z,99503.44
2018-06-09T09:06:46.890Z,99502.50
2018-06-09T09:09:14.554Z,99508.20
2018-06-09T09:11:42.270Z,99511.16
2018-06-09T09:14:09.897Z,99503.46
2018-06-09T09:16:37.523Z,99493.08
2018-06-09T09:19:05.213Z,99497.62
2018-06-09T09:21:32.860Z,99493.02
2018-06-09T09:24:00.580Z,99485.84
2018-06-09T09:26:28.264Z,99477.71
2018-06-09T09:28:55.879Z,99478.61
2018-06-09T09:31:23.523Z,99476.17
2018-06-09T09:33:51.216Z,99473.28
2018-06-09T09:36:18.822Z,99464.38
2018-06-09T09:38:46.511Z,99466.74
2018-06-09T09:41:14.096Z,99465.31
2018-06-09T09:43:41.747Z,99465.08
2018-06-09T09:46:09.319Z,99463.32
2018-06-09T09:48:37.074Z,99459.50
2018-06-09T09:51:05.107Z,99458.72
2018-06-09T09:53:33.323Z,99459.02
2018-06-09T09:56:01.051Z,99459.16
2018-06-09T09:58:29.169Z,99453.77
2018-06-09T10:00:56.827Z,99460.30
2018-06-09T10:03:25.261Z,99456.78
2018-06-09T10:05:52.871Z,99451.51
2018-06-09T10:08:20.552Z,99447.75
2018-06-09T10:10:48.250Z,99441.02
2018-06-09T10:13:15.902Z,99440.48
2018-06-09T10:15:43.485Z,99440.64
2018-06-09T10:18:11.089Z,99446.19
2018-06-09T10:20:38.733Z,99449.45
2018-06-09T10:23:06.333Z,99444.81
2018-06-09T10:25:34.292Z,99453.42
2018-06-09T10:28:01.903Z,99456.98
2018-06-09T10:30:29.521Z,99461.90
2018-06-09T10:32:57.096Z,99454.32
2018-06-09T10:35:24.815Z,99452.12
2018-06-09T10:37:52.395Z,99401.30
2018-06-09T10:40:20.023Z,99452.37
2018-06-09T10:42:48.693Z,99449.89
2018-06-09T10:45:16.446Z,99449.36
2018-06-09T10:47:44.059Z,99443.40
2018-06-09T10:50:11.641Z,99441.73
2018-06-09T10:52:39.296Z,99443.02
2018-06-09T10:55:07.015Z,99435.96
2018-06-09T10:57:34.724Z,99434.63
2018-06-09T11:00:02.325Z,99437.41
2018-06-09T11:02:29.954Z,99433.98
2018-06-09T11:04:57.571Z,99441.03
2018-06-09T11:07:25.172Z,99443.73
2018-06-09T11:09:52.817Z,99436.42
2018-06-09T11:12:20.430Z,99436.91
2018-06-09T11:14:48.121Z,99436.14
2018-06-09T11:17:15.758Z,99438.53
2018-06-09T11:19:43.334Z,99431.11
2018-06-09T11:22:10.998Z,99432.41
2018-06-09T11:24:38.616Z,99428.48
2018-06-09T11:27:06.266Z,99423.91
2018-06-09T11:29:33.849Z,99427.13
2018-06-09T11:32:01.528Z,99423.89
2018-06-09T11:34:29.177Z,99424.72
2018-06-09T11:36:56.789Z,99424.98
2018-06-09T11:39:24.539Z,99423.07
2018-06-09T11:41:52.273Z,99422.56
2018-06-09T11:44:19.877Z,99428.45
2018-06-09T11:46:47.567Z,99434.84
2018-06-09T11:49:15.183Z,99441.39
2018-06-09T11:51:43.091Z,99445.17
2018-06-09T11:54:10.731Z,99434.50
2018-06-09T11:56:38.320Z,99431.72
2018-06-09T11:59:06.414Z,99431.50
2018-06-09T12:01:33.972Z,99424.70
2018-06-09T12:04:01.542Z,99421.42
2018-06-09T12:06:29.298Z,99415.28
2018-06-09T12:08:56.997Z,99416.20
2018-06-09T12:11:24.656Z,99414.18
2018-06-09T12:13:52.257Z,99417.22
2018-06-09T12:16:19.945Z,99413.23
2018-06-09T12:18:47.569Z,99413.95
2018-06-09T12:21:15.489Z,99415.44
2018-06-09T12:23:43.381Z,99410.92
2018-06-09T12:26:10.967Z,99411.88
2018-06-09T12:28:38.607Z,99410.36
2018-06-09T12:31:06.265Z,99409.91
2018-06-09T12:33:33.949Z,99406.33
2018-06-09T12:36:01.747Z,99405.05
2018-06-09T12:38:30.392Z,99404.41
2018-06-09T12:40:58.037Z,99400.02
2018-06-09T12:43:25.687Z,99400.72
2018-06-09T12:45:53.231Z,99404.66
2018-06-09T12:48:20.798Z,99414.96
2018-06-09T12:50:48.432Z,99416.25
2018-06-09T12:53:16.071Z,99414.58
2018-06-09T12:55:43.710Z,99422.98
2018-06-09T12:58:11.350Z,99420.78
2018-06-09T13:00:38.977Z,99423.11
2018-06-09T13:03:06.672Z,99409.14
2018-06-09T13:05:34.387Z,99410.78
2018-06-09T13:08:03.118Z,99395.67
2018-06-09T13:10:30.752Z,99393.80
2018-06-09T13:12:58.454Z,99384.72
2018-06-09T13:15:26.105Z,99386.14
2018-06-09T13:17:53.749Z,99381.95
2018-06-09T13:20:22.129Z,99380.88
2018-06-09T13:22:49.827Z,99373.59
2018-06-09T13:25:17.470Z,99371.83
2018-06-09T13:27:45.088Z,99371.11
2018-06-09T13:30:14.724Z,99375.81
2018-06-09T13:32:42.436Z,99367.45
2018-06-09T13:35:10.004Z,99374.53
2018-06-09T13:37:37.804Z,99382.09
2018-06-09T13:40:05.741Z,99382.34
2018-06-09T13:42:33.317Z,99386.31
2018-06-09T13:45:01.039Z,99379.22
2018-06-09T13:47:28.716Z,99371.95
2018-06-09T13:49:56.263Z,99368.84
2018-06-09T13:52:23.885Z,99363.53
2018-06-09T13:54:51.547Z,99352.19
2018-06-09T13:57:19.221Z,99348.08
2018-06-09T13:59:46.842Z,99349.09
2018-06-09T14:02:14.464Z,99344.84
2018-06-09T14:04:42.098Z,99343.62
2018-06-09T14:07:10.048Z,99336.66
2018-06-09T14:09:37.672Z,99338.05
2018-06-09T14:12:05.452Z,99330.70
2018-06-09T14:14:33.466Z,99329.33
2018-06-09T14:17:01.290Z,99331.89
2018-06-09T14:19:28.975Z,99331.97
2018-06-09T14:21:56.698Z,99298.56
2018-06-09T14:24:24.290Z,99339.64
2018-06-09T14:26:52.598Z,99333.03
2018-06-09T14:29:20.331Z,99329.48
2018-06-09T14:31:47.917Z,99323.44
2018-06-09T14:34:15.487Z,99328.54
2018-06-09T14:36:43.165Z,99331.19
2018-06-09T14:39:10.814Z,99326.21
2018-06-09T14:41:38.493Z,99335.19
2018-06-09T14:44:06.227Z,99321.66
2018-06-09T14:46:33.869Z,99324.22
2018-06-09T14:49:01.531Z,99321.72
2018-06-09T14:51:29.115Z,99324.25
2018-06-09T14:53:56.962Z,99329.70
2018-06-09T14:56:24.593Z,99338.61
2018-06-09T14:58:52.162Z,99334.29
2018-06-09T15:01:19.749Z,99337.44
2018-06-09T15:03:47.390Z,99338.22
2018-06-09T15:06:14.973Z,99335.31
2018-06-09T15:08:42.574Z,99328.41
2018-06-09T15:11:10.290Z,99337.17
2018-06-09T15:13:37.830Z,99336.43
2018-06-09T15:16:05.397Z,99331.83
2018-06-09T15:18:33.046Z,99338.51
2018-06-09T15:21:00.687Z,99323.88
2018-06-09T15:23:28.282Z,99326.25
2018-06-09T15:25:55.871Z,99336.25
2018-06-09T15:28:23.556Z,99337.28
2018-06-09T15:30:51.232Z,99324.09
2018-06-09T15:33:18.853Z,99325.43
2018-06-09T15:35:46.453Z,99321.43
2018-06-09T15:38:14.103Z,99305.28
2018-06-09T15:40:41.815Z,99298.98
2018-06-09T15:43:09.477Z,99303.88
2018-06-09T15:45:37.347Z,99315.64
2018-06-09T15:48:04.985Z,99323.55
2018-06-09T15:50:32.618Z,99325.58
2018-06-09T15:53:00.271Z,99346.98
2018-06-09T15:55:27.823Z,99360.47
2018-06-09T15:57:55.509Z,99371.46
2018-06-09T16:00:23.224Z,99392.48
2018-06-09T16:02:50.852Z,99390.89
2018-06-09T16:05:18.461Z,99384.86
2018-06-09T16:07:46.174Z,99372.77
2018-06-09T16:10:13.738Z,99370.85
2018-06-09T16:12:41.537Z,99359.27
2018-06-09T16:15:09.234Z,99363.84
2018-06-09T16:17:36.993Z,99383.19
2018-06-09T16:20:04.779Z,99369.91
2018-06-09T16:22:32.440Z,99355.80
2018-06-09T16:25:01.158Z,99365.80
2018-06-09T16:27:28.816Z,99360.05
2018-06-09T16:29:56.683Z,99368.70
2018-06-09T16:32:24.345Z,99382.28
2018-06-09T16:34:51.982Z,99380.12
2018-06-09T16:37:19.602Z,99382.64
2018-06-09T16:39:47.219Z,99383.53
2018-06-09T16:42:14.848Z,99391.22
2018-06-09T16:44:42.553Z,99385.09
2018-06-09T16:47:10.151Z,99386.61
2018-06-09T16:49:37.835Z,99387.12
2018-06-09T16:52:05.714Z,99386.02
2018-06-09T16:54:33.383Z,99386.89
2018-06-09T16:57:01.031Z,99384.45
2018-06-09T16:59:28.659Z,99384.03
2018-06-09T17:01:56.594Z,99378.70
2018-06-09T17:04:24.229Z,99377.14
2018-06-09T17:06:51.921Z,99368.97
2018-06-09T17:09:19.506Z,99358.78
2018-06-09T17:11:47.106Z,99362.45
2018-06-09T17:14:14.738Z,99367.87
2018-06-09T17:16:42.414Z,99375.10
2018-06-09T17:19:10.063Z,99381.17
2018-06-09T17:21:37.719Z,99391.61
2018-06-09T17:24:05.328Z,99393.34
2018-06-09T17:26:32.986Z,99394.62
2018-06-09T17:29:00.696Z,99396.92
2018-06-09T17:31:28.407Z,99399.08
2018-06-09T17:33:56.070Z,99412.08
2018-06-09T17:36:23.931Z,99415.91
2018-06-09T17:38:51.589Z,99424.91
2018-06-09T17:41:19.225Z,99428.72
2018-06-09T17:43:46.818Z,99424.44
2018-06-09T17:46:14.443Z,99418.02
2018-06-09T17:48:42.026Z,99411.59
2018-06-09T17:51:09.763Z,99414.28
2018-06-09T17:53:37.299Z,99413.53
2018-06-09T17:56:04.920Z,99422.80
2018-06-09T17:58:32.543Z,99417.83
2018-06-09T18:01:00.143Z,99413.16
2018-06-09T18:03:27.814Z,99415.44
2018-06-09T18:05:55.474Z,99406.77
2018-06-09T18:08:23.038Z,99414.03
2018-06-09T18:10:50.640Z,99418.62
2018-06-09T18:13:18.325Z,99425.81
2018-06-09T18:15:46.082Z,99432.70
2018-06-09T18:18:13.720Z,99431.06
2018-06-09T18:20:41.348Z,99432.25
2018-06-09T18:23:08.958Z,99437.34
2018-06-09T18:25:36.570Z,99430.40
2018-06-09T18:28:04.202Z,99423.91
2018-06-09T18:30:31.789Z,99428.59
2018-06-09T18:32:59.425Z,99432.98
2018-06-09T18:35:27.100Z,99442.27
2018-06-09T18:37:54.684Z,99445.25
2018-06-09T18:40:22.337Z,99446.58
2018-06-09T18:42:50.095Z,99432.73
2018-06-09T18:45:17.741Z,99424.91
2018-06-09T18:47:45.405Z,99429.02
2018-06-09T18:50:13.005Z,99434.72
2018-06-09T18:52:41.592Z,99433.78
2018-06-09T18:55:09.242Z,99435.58
2018-06-09T18:57:37.773Z,99444.22
2018-06-09T19:00:05.697Z,99427.30
2018-06-09T19:02:33.330Z,99433.34
2018-06-09T19:05:00.945Z,99423.07
2018-06-09T19:07:28.554Z,99419.67
2018-06-09T19:09:56.238Z,99419.81
2018-06-09T19:12:23.907Z,99425.09
2018-06-09T19:14:51.634Z,99427.06
2018-06-09T19:17:19.258Z,99432.03
2018-06-09T19:19:47.064Z,99429.67
2018-06-09T19:22:14.675Z,99427.19
2018-06-09T19:24:42.371Z,99441.79
2018-06-09T19:27:10.030Z,99441.95
2018-06-09T19:29:37.722Z,99445.80
2018-06-09T19:32:05.497Z,99453.20
2018-06-09T19:34:33.168Z,99445.71
2018-06-09T19:37:00.830Z,99458.03
2018-06-09T19:39:28.499Z,99447.34
2018-06-09T19:41:56.158Z,99454.66
2018-06-09T19:44:23.847Z,99451.06
2018-06-09T19:46:51.434Z,99442.02
2018-06-09T19:49:19.531Z,99447.34
2018-06-09T19:51:47.229Z,99441.56
2018-06-09T19:54:14.881Z,99444.66
2018-06-09T19:56:42.479Z,99454.55
2018-06-09T19:59:10.202Z,99451.18
2018-06-09T20:01:37.939Z,99448.88
2018-06-09T20:04:05.608Z,99456.30
2018-06-09T20:06:33.282Z,99458.55
2018-06-09T20:09:01.025Z,99460.00
2018-06-09T20:11:28.738Z,99464.42
2018-06-09T20:13:56.542Z,99467.50
2018-06-09T20:16:24.192Z,99475.34
2018-06-09T20:18:51.919Z,99474.61
2018-06-09T20:21:19.713Z,99476.79
2018-06-09T20:23:47.354Z,99483.27
2018-06-09T20:26:15.037Z,99484.08
2018-06-09T20:28:42.833Z,99486.66
2018-06-09T20:31:10.551Z,99495.59
2018-06-09T20:33:38.210Z,99501.78
2018-06-09T20:36:06.122Z,99491.81
2018-06-09T20:38:33.820Z,99495.50
2018-06-09T20:41:01.592Z,99504.77
2018-06-09T20:43:30.039Z,99498.52
2018-06-09T20:45:57.778Z,99496.42
2018-06-09T20:48:25.467Z,99503.23
2018-06-09T20:50:53.304Z,99507.26
2018-06-09T20:53:20.946Z,99504.19
2018-06-09T20:55:48.631Z,99510.76
2018-06-09T20:58:16.307Z,99512.02
2018-06-09T21:00:44.024Z,99507.80
2018-06-09T21:03:11.640Z,99508.91
2018-06-09T21:05:39.621Z,99503.97
2018-06-09T21:08:07.300Z,99500.33
2018-06-09T21:10:34.944Z,99499.22
2018-06-09T21:13:02.892Z,99499.80
2018-06-09T21:15:30.534Z,99491.70
2018-06-09T21:17:58.186Z,99496.22
2018-06-09T21:20:25.793Z,99483.48
2018-06-09T21:22:53.373Z,99485.41
2018-06-09T21:25:21.059Z,99472.86
2018-06-09T21:27:54.789Z,99475.14
2018-06-09T21:30:28.720Z,99467.75
2018-06-09T21:33:02.323Z,99467.22
2018-06-09T21:36:10.152Z,99463.56
2018-06-09T21:38:42.813Z,99458.99
2018-06-09T21:41:16.462Z,99465.70
2018-06-09T21:43:49.909Z,99467.20
2018-06-09T21:46:23.395Z,99471.52
2018-06-09T21:48:51.005Z,99477.78
2018-06-09T21:51:18.615Z,99488.99
2018-06-09T21:53:46.183Z,99492.89
2018-06-09T21:56:14.017Z,99507.22
2018-06-09T21:58:41.669Z,99518.80
2018-06-09T22:01:09.277Z,99517.70
2018-06-09T22:03:36.838Z,99519.03
2018-06-09T22:06:05.413Z,99518.50
2018-06-09T22:08:33.028Z,99507.87
2018-06-09T22:11:00.756Z,99515.45
2018-06-09T22:13:28.331Z,99509.29
2018-06-09T22:15:55.969Z,99513.22
2018-06-09T22:18:23.634Z,99507.17
2018-06-09T22:20:51.265Z,99518.17
2018-06-09T22:23:18.853Z,99524.83
2018-06-09T22:26:02.522Z,99526.23
2018-06-09T22:28:30.160Z,99520.41
2018-06-09T22:30:57.743Z,99515.58
2018-06-09T22:33:25.313Z,99519.89
2018-06-09T22:35:52.946Z,99519.89
2018-06-09T22:38:20.573Z,99511.09
2018-06-09T22:40:48.146Z,99511.95
2018-06-09T22:43:15.795Z,99503.05
2018-06-09T22:45:43.368Z,99501.30
2018-06-09T22:48:10.938Z,99501.31
2018-06-09T22:50:38.504Z,99502.73
2018-06-09T22:53:06.197Z,99485.27
2018-06-09T22:55:33.761Z,99484.02
2018-06-09T22:58:01.449Z,99484.57
2018-06-09T23:00:47.343Z,99476.26
2018-06-09T23:03:16.001Z,99472.63
2018-06-09T23:05:45.756Z,99471.57
2018-06-09T23:08:13.297Z,99475.09
2018-06-09T23:10:40.852Z,99472.84
2018-06-09T23:13:08.477Z,99470.93
2018-06-09T23:15:36.077Z,99470.40
2018-06-09T23:18:03.754Z,99467.87
2018-06-09T23:20:32.282Z,99461.95
2018-06-09T23:22:59.835Z,99457.45
2018-06-09T23:25:27.440Z,99456.94
2018-06-09T23:27:55.577Z,99458.83
2018-06-09T23:30:23.112Z,99464.58
2018-06-09T23:32:51.042Z,99452.63
2018-06-09T23:35:18.692Z,99453.53
2018-06-09T23:37:46.240Z,99442.50
2018-06-09T23:40:13.937Z,99438.16
2018-06-09T23:42:41.572Z,99442.33
2018-06-09T23:45:09.194Z,99445.36
2018-06-09T23:47:36.862Z,99450.66
2018-06-09T23:50:04.586Z,99443.48
2018-06-09T23:52:32.307Z,99438.66
2018-06-09T23:54:59.889Z,99428.14
2018-06-09T23:57:27.471Z,99437.84
2018-06-09T23:59:55.054Z,99432.88
